Airfield :
LOGIN :

Register | Disclaimer

   EN    FR    IT 

 










Legend :    VFR   Marginal VFR   IFR   Intensive IFR   Very Intensive IFR
Visi :
Ceiling :
>= 8 km
>= 3000ft
5 to 8 km
1000 to 3000 ft
1500m to 5 km
500 to 1000 ft
800 to 1500m
200 to 500 ft
< 800m
< 200 ft
Symbols :   Thunderstorms  Fog  Heavy snow  Heavy precipitations  Wind > 20 kt
SIGMETs :     Misc.  Thunderstorms  Icing  Turbulence  Mountain Waves  Volcanic Ashes







- Airport Elevation : 13 ft
- IATA code : LYX
- Download approach charts


EGMD - Lydd

CURRENT METAR :
  • 191120Z 24009KT 9000 SCT003 BKN010 09/08 Q1017

EXPIRED METARs :
  • 191050Z 23009KT 9000 -RA SCT003 BKN007 09/08 Q1017
  • 191020Z 22010KT 5000 -RA BKN002 09/08 Q1017
  • 190950Z 21011KT 5000 -RADZ OVC003 08/08 Q1017
  • 190920Z 20010KT 6000 -RADZ BKN003 08/08 Q1017
  • 190850Z 20010KT 4500 -RADZ BKN003 08/08 Q1017 REDZ

TAF TAF EGMD
Valid from the 19 at 12:00 until the 19 at 21:00 UTC


191103Z 1912/1921 21008KT 8000 SCT002 BKN004
BECMG 1912/1915 33010KT
TEMPO 1912/1921 2500 DZ BR BKN005
ATIS : +44 1797 322 422
No reported NOTAMs for that airfield.



MET'MAP, your aeronautical weather chart ! - Copyright ORBIFLY December 2007 - Disclaimer

ORBIFLY MET'MAP TEAM :

Programming & Development : Alexandra Zaïnal
Concept & Development : Baudouin d'Aumeries
Co-Development & Prog : Marc-Olivier Méhu
Technical & hardware support : Manuel Goepfert

Contact : metmap@orbifly.com




SOURCES & CREDITS :

   NOAA